Enter the Airport ICAO Code

Search by Airport or City

Current Weather

GCRR | Lanzarote Airport

Lanzarote, Canary Islands, Spain

Last Update 5 Minutes Ago

Sky with Few Clouds

Temperature of 22 ºC

Moderate Winds from NorthEast

Temperature

22 ºC

Dew Point Temperature

19 ºC

Relative Humidity

83.2 %

Wind Direction

NorthEast (040º, Without Significant Variations)

Wind Velocity

20 km/h (11 kt)

Gusts

None

Visibility

Greater than 10 Kilometers

Sea Level Pressure

1021 hPa (Hectopascals)

Layers of Clouds

5% to 30% of Sky Covered from 457 mts (1500 ft) Above Ground Level.

METAR GCRR 202200Z 04011KT 9999 FEW015 22/19 Q1021

Weather Forecast

GCRR | Lanzarote Airport

Lanzarote, Canary Islands, Spain

Forecast valid for the next 23 Hours

From now on it is expected:

Sky with Few Clouds

Moderate Winds from NorthEast

Maximum Temperature

26 ºC in 18 Hours

Minimum Temperature

21 ºC in 8 Hours

TAF GCRR 202000Z 2021/2121 03011KT 9999 FEW020 TX26/2116Z TN21/2106Z